Language: 


Des rapports , des résumés tant et plus, au choix de chacun....


Données statistiques de la station
Quotidien Rapport Février 9, 2018 Unités:  les deux    Anglais   Métrique
« Précédent Jour
Suivant Jour »
Quotidien Hebdomadaire Mensuel Annuel Actuel
  Haut: Bas: Moyen:
Température: TemperatureC °F /  -17.8 °C 0.0 °F /  -17.8 °C 1 °F /  -17.2 °C
Pt de rosée: DewpointC °F /  -17.8 °C -3.0 °F /  -19.4 °C 0.2 °F /  -17.7 °C
Humidité: Humidity % 77 % 91 %
Vitesse du vent: WindSpeedKMH mph /  0 km/h - 9.5 mph /  15.3 km/h
Rafales: WindSpeedGustKMH mph /  0 km/h - -
Vent:- - SSW
Pression: PressurehPa in /  0 hPa 1008.0 in /  34130.9 hPa -
Précipitation: 5.1 in /  129.54 mm    
Historical Graphs
 
 
Données statistiques pour Février 9, 2018
Heure Température Point de rosée Pression Vent Vitesse du vent Refales Humidité Pluie (taux horaire)
TemperatureC °F /  -17.8 °C DewpointC °F /  -17.8 °C PressurehPa in /  0 hPa Calm     Humidity % HourlyPrecipMM in /  0 mm
00:02 0.7 °F /  -17.4 °C -1.0 °F /  -18.3 °C 1015.1 in /  34371.3 hPa SSW 8.7 mph /  14 km/h 8.7 mph /  14 km/h 88 % 0.0 in /  0 mm
00:07 0.7 °F /  -17.4 °C -1.0 °F /  -18.3 °C 1015.1 in /  34371.3 hPa SSW 8.7 mph /  14 km/h 8.7 mph /  14 km/h 88 % 0.0 in /  0 mm
00:12 0.6 °F /  -17.4 °C -1.0 °F /  -18.3 °C 1015.1 in /  34371.3 hPa SSW 8.7 mph /  14 km/h 8.7 mph /  14 km/h 88 % 0.0 in /  0 mm
00:17 0.6 °F /  -17.4 °C -1.0 °F /  -18.3 °C 1015.1 in /  34371.3 hPa SSW 11.6 mph /  18.7 km/h 11.6 mph /  18.7 km/h 88 % 0.0 in /  0 mm
00:22 0.6 °F /  -17.4 °C -1.0 °F /  -18.3 °C 1015.1 in /  34371.3 hPa SSW 9.0 mph /  14.5 km/h 11.6 mph /  18.7 km/h 88 % 0.0 in /  0 mm
00:27 0.5 °F /  -17.5 °C -1.0 °F /  -18.3 °C 1015.1 in /  34371.3 hPa South 14.3 mph /  23 km/h 14.3 mph /  23 km/h 88 % 0.0 in /  0 mm
00:32 0.5 °F /  -17.5 °C -1.0 °F /  -18.3 °C 1015.1 in /  34371.3 hPa South 14.3 mph /  23 km/h 14.3 mph /  23 km/h 88 % 0.0 in /  0 mm
00:37 0.5 °F /  -17.5 °C -1.0 °F /  -18.3 °C 1015.1 in /  34371.3 hPa SSW 10.1 mph /  16.3 km/h 14.3 mph /  23 km/h 88 % 0.0 in /  0 mm
00:42 0.5 °F /  -17.5 °C -1.0 °F /  -18.3 °C 1015.1 in /  34371.3 hPa SSW 10.1 mph /  16.3 km/h 14.3 mph /  23 km/h 88 % 0.0 in /  0 mm
00:47 0.5 °F /  -17.5 °C -1.0 °F /  -18.3 °C 1015.1 in /  34371.3 hPa SSW 12.6 mph /  20.3 km/h 12.6 mph /  20.3 km/h 88 % 0.0 in /  0 mm
00:52 0.5 °F /  -17.5 °C -1.0 °F /  -18.3 °C 1015.1 in /  34371.3 hPa SSW 12.6 mph /  20.3 km/h 12.6 mph /  20.3 km/h 88 % 0.0 in /  0 mm
00:57 0.5 °F /  -17.5 °C -1.0 °F /  -18.3 °C 1015.1 in /  34371.3 hPa SSW 9.7 mph /  15.6 km/h 12.6 mph /  20.3 km/h 88 % 0.0 in /  0 mm
01:02 0.4 °F /  -17.6 °C -1.0 °F /  -18.3 °C 1015.1 in /  34371.3 hPa SSW 9.7 mph /  15.6 km/h 12.6 mph /  20.3 km/h 88 % 0.0 in /  0 mm
01:07 0.4 °F /  -17.6 °C -1.0 °F /  -18.3 °C 1015.1 in /  34371.3 hPa SSW 9.7 mph /  15.6 km/h 9.7 mph /  15.6 km/h 89 % 0.0 in /  0 mm
01:12 0.5 °F /  -17.5 °C -1.0 °F /  -18.3 °C 1015.1 in /  34371.3 hPa SSW 9.7 mph /  15.6 km/h 9.7 mph /  15.6 km/h 89 % 0.0 in /  0 mm
01:18 0.5 °F /  -17.5 °C -1.0 °F /  -18.3 °C 1015.1 in /  34371.3 hPa SSW 9.7 mph /  15.6 km/h 9.7 mph /  15.6 km/h 89 % 0.0 in /  0 mm
01:23 0.5 °F /  -17.5 °C -1.0 °F /  -18.3 °C 1015.1 in /  34371.3 hPa SSW 9.7 mph /  15.6 km/h 9.7 mph /  15.6 km/h 89 % 0.0 in /  0 mm
01:28 0.5 °F /  -17.5 °C -1.0 °F /  -18.3 °C 1015.1 in /  34371.3 hPa SSW 9.7 mph /  15.6 km/h 9.7 mph /  15.6 km/h 89 % 0.0 in /  0 mm
01:33 0.5 °F /  -17.5 °C -1.0 °F /  -18.3 °C 1015.1 in /  34371.3 hPa SSW 9.7 mph /  15.6 km/h 9.7 mph /  15.6 km/h 89 % 0.0 in /  0 mm
01:38 0.4 °F /  -17.6 °C -1.0 °F /  -18.3 °C 1015.1 in /  34371.3 hPa SSW 9.7 mph /  15.6 km/h 9.7 mph /  15.6 km/h 89 % 0.0 in /  0 mm
01:43 0.4 °F /  -17.6 °C -1.0 °F /  -18.3 °C 1015.1 in /  34371.3 hPa SSW 9.7 mph /  15.6 km/h 9.7 mph /  15.6 km/h 89 % 0.0 in /  0 mm
01:48 0.4 °F /  -17.6 °C -1.0 °F /  -18.3 °C 1015.1 in /  34371.3 hPa SSW 9.7 mph /  15.6 km/h 9.7 mph /  15.6 km/h 88 % 0.0 in /  0 mm
01:53 0.4 °F /  -17.6 °C -1.0 °F /  -18.3 °C 1015.1 in /  34371.3 hPa SSW 10.5 mph /  16.9 km/h 10.5 mph /  16.9 km/h 88 % 0.0 in /  0 mm
01:58 0.4 °F /  -17.6 °C -1.0 °F /  -18.3 °C 1015.1 in /  34371.3 hPa SSW 10.5 mph /  16.9 km/h 10.5 mph /  16.9 km/h 88 % 0.0 in /  0 mm
02:03 0.4 °F /  -17.6 °C -1.0 °F /  -18.3 °C 1014.1 in /  34337.4 hPa SSW 10.5 mph /  16.9 km/h 10.5 mph /  16.9 km/h 88 % 0.0 in /  0 mm
02:08 0.4 °F /  -17.6 °C -1.0 °F /  -18.3 °C 1014.1 in /  34337.4 hPa SSW 10.5 mph /  16.9 km/h 10.5 mph /  16.9 km/h 88 % 0.0 in /  0 mm
02:13 0.4 °F /  -17.6 °C -1.0 °F /  -18.3 °C 1014.1 in /  34337.4 hPa SSW 10.5 mph /  16.9 km/h 10.5 mph /  16.9 km/h 88 % 0.0 in /  0 mm
02:18 0.4 °F /  -17.6 °C -1.0 °F /  -18.3 °C 1014.1 in /  34337.4 hPa SSW 10.5 mph /  16.9 km/h 10.5 mph /  16.9 km/h 88 % 0.0 in /  0 mm
02:23 0.4 °F /  -17.6 °C -1.0 °F /  -18.3 °C 1014.1 in /  34337.4 hPa SSW 10.5 mph /  16.9 km/h 10.5 mph /  16.9 km/h 88 % 0.0 in /  0 mm
02:28 0.4 °F /  -17.6 °C -1.0 °F /  -18.3 °C 1014.1 in /  34337.4 hPa SSW 10.5 mph /  16.9 km/h 10.5 mph /  16.9 km/h 88 % 0.0 in /  0 mm
02:33 0.4 °F /  -17.6 °C -1.0 °F /  -18.3 °C 1014.1 in /  34337.4 hPa SSW 10.5 mph /  16.9 km/h 10.5 mph /  16.9 km/h 88 % 0.0 in /  0 mm
02:38 0.4 °F /  -17.6 °C -1.0 °F /  -18.3 °C 1014.1 in /  34337.4 hPa South 6.1 mph /  9.8 km/h 6.1 mph /  9.8 km/h 88 % 0.0 in /  0 mm
02:43 0.4 °F /  -17.6 °C -1.0 °F /  -18.3 °C 1014.1 in /  34337.4 hPa South 6.1 mph /  9.8 km/h 6.1 mph /  9.8 km/h 88 % 0.0 in /  0 mm
02:48 0.5 °F /  -17.5 °C -1.0 °F /  -18.3 °C 1014.1 in /  34337.4 hPa South 6.1 mph /  9.8 km/h 6.1 mph /  9.8 km/h 87 % 0.0 in /  0 mm
02:53 0.5 °F /  -17.5 °C -1.0 °F /  -18.3 °C 1014.1 in /  34337.4 hPa SSW 13.0 mph /  20.9 km/h 13.0 mph /  20.9 km/h 87 % 0.0 in /  0 mm
02:59 0.5 °F /  -17.5 °C -1.0 °F /  -18.3 °C 1014.1 in /  34337.4 hPa SSW 8.7 mph /  14 km/h 13.0 mph /  20.9 km/h 87 % 0.0 in /  0 mm
03:04 0.5 °F /  -17.5 °C -1.0 °F /  -18.3 °C 1014.1 in /  34337.4 hPa South 12.2 mph /  19.6 km/h 13.0 mph /  20.9 km/h 86 % 0.0 in /  0 mm
03:09 0.4 °F /  -17.6 °C -1.0 °F /  -18.3 °C 1014.1 in /  34337.4 hPa South 12.2 mph /  19.6 km/h 13.0 mph /  20.9 km/h 86 % 0.0 in /  0 mm
03:14 0.4 °F /  -17.6 °C -1.0 °F /  -18.3 °C 1013.1 in /  34303.6 hPa South 7.9 mph /  12.7 km/h 17.2 mph /  27.7 km/h 86 % 0.0 in /  0 mm
03:19 0.4 °F /  -17.6 °C -1.0 °F /  -18.3 °C 1013.1 in /  34303.6 hPa South 16.6 mph /  26.7 km/h 17.2 mph /  27.7 km/h 86 % 0.0 in /  0 mm
03:24 0.4 °F /  -17.6 °C -1.0 °F /  -18.3 °C 1013.1 in /  34303.6 hPa Calm   16.6 mph /  26.7 km/h 85 % 0.0 in /  0 mm
03:29 0.4 °F /  -17.6 °C -1.0 °F /  -18.3 °C 1013.1 in /  34303.6 hPa SSW 15.8 mph /  25.4 km/h 16.6 mph /  26.7 km/h 85 % 0.0 in /  0 mm
03:34 0.4 °F /  -17.6 °C -1.0 °F /  -18.3 °C 1013.1 in /  34303.6 hPa SSW 11.9 mph /  19.2 km/h 16.3 mph /  26.2 km/h 85 % 0.0 in /  0 mm
03:39 0.4 °F /  -17.6 °C -1.0 °F /  -18.3 °C 1013.1 in /  34303.6 hPa SSW 11.9 mph /  19.2 km/h 15.8 mph /  25.4 km/h 85 % 0.0 in /  0 mm
03:44 0.4 °F /  -17.6 °C -1.0 °F /  -18.3 °C 1013.1 in /  34303.6 hPa South 12.6 mph /  20.3 km/h 17.2 mph /  27.7 km/h 85 % 0.0 in /  0 mm
03:49 0.4 °F /  -17.6 °C -1.0 °F /  -18.3 °C 1013.1 in /  34303.6 hPa SSE 8.7 mph /  14 km/h 18.3 mph /  29.5 km/h 86 % 0.0 in /  0 mm
03:54 0.3 °F /  -17.6 °C -1.0 °F /  -18.3 °C 1013.1 in /  34303.6 hPa SSW 10.5 mph /  16.9 km/h 18.3 mph /  29.5 km/h 86 % 0.0 in /  0 mm
03:59 0.3 °F /  -17.6 °C -1.0 °F /  -18.3 °C 1013.1 in /  34303.6 hPa SSE 10.1 mph /  16.3 km/h 16.3 mph /  26.2 km/h 86 % 0.0 in /  0 mm
04:04 0.3 °F /  -17.6 °C -1.0 °F /  -18.3 °C 1013.1 in /  34303.6 hPa SSE 19.1 mph /  30.7 km/h 19.1 mph /  30.7 km/h 86 % 0.0 in /  0 mm
04:09 0.3 °F /  -17.6 °C -1.0 °F /  -18.3 °C 1013.1 in /  34303.6 hPa South 16.6 mph /  26.7 km/h 19.1 mph /  30.7 km/h 86 % 0.0 in /  0 mm
04:14 0.3 °F /  -17.6 °C -1.0 °F /  -18.3 °C 1013.1 in /  34303.6 hPa South 10.5 mph /  16.9 km/h 19.1 mph /  30.7 km/h 86 % 0.0 in /  0 mm
04:19 0.3 °F /  -17.6 °C -1.0 °F /  -18.3 °C 1013.1 in /  34303.6 hPa SSW 15.4 mph /  24.8 km/h 15.4 mph /  24.8 km/h 86 % 0.0 in /  0 mm
04:24 0.3 °F /  -17.6 °C -1.0 °F /  -18.3 °C 1013.1 in /  34303.6 hPa SSW 12.2 mph /  19.6 km/h 15.4 mph /  24.8 km/h 87 % 0.0 in /  0 mm
04:29 0.3 °F /  -17.6 °C -1.0 °F /  -18.3 °C 1013.1 in /  34303.6 hPa South 11.6 mph /  18.7 km/h 16.3 mph /  26.2 km/h 87 % 0.0 in /  0 mm
04:34 0.3 °F /  -17.6 °C -1.0 °F /  -18.3 °C 1013.1 in /  34303.6 hPa SSE 13.0 mph /  20.9 km/h 20.6 mph /  33.2 km/h 87 % 0.0 in /  0 mm
04:39 0.3 °F /  -17.6 °C -1.0 °F /  -18.3 °C 1013.1 in /  34303.6 hPa SSW 11.9 mph /  19.2 km/h 20.6 mph /  33.2 km/h 86 % 0.0 in /  0 mm
04:45 0.2 °F /  -17.7 °C -2.0 °F /  -18.9 °C 1012.1 in /  34269.7 hPa South 14.0 mph /  22.5 km/h 16.3 mph /  26.2 km/h 86 % 0.0 in /  0 mm
04:50 0.2 °F /  -17.7 °C -2.0 °F /  -18.9 °C 1012.1 in /  34269.7 hPa South 12.6 mph /  20.3 km/h 16.3 mph /  26.2 km/h 86 % 0.0 in /  0 mm
04:55 0.2 °F /  -17.7 °C -2.0 °F /  -18.9 °C 1012.1 in /  34269.7 hPa SSW 9.0 mph /  14.5 km/h 16.9 mph /  27.2 km/h 86 % 0.0 in /  0 mm
05:00 0.2 °F /  -17.7 °C -2.0 °F /  -18.9 °C 1012.1 in /  34269.7 hPa SSE 14.0 mph /  22.5 km/h 16.9 mph /  27.2 km/h 86 % 0.0 in /  0 mm
05:05 0.2 °F /  -17.7 °C -2.0 °F /  -18.9 °C 1012.1 in /  34269.7 hPa SSW 10.5 mph /  16.9 km/h 14.0 mph /  22.5 km/h 86 % 0.0 in /  0 mm
05:10 0.2 °F /  -17.7 °C -2.0 °F /  -18.9 °C 1012.1 in /  34269.7 hPa SSE 16.3 mph /  26.2 km/h 16.6 mph /  26.7 km/h 86 % 0.0 in /  0 mm
05:15 0.2 °F /  -17.7 °C -2.0 °F /  -18.9 °C 1011.1 in /  34235.8 hPa SSW 10.5 mph /  16.9 km/h 19.1 mph /  30.7 km/h 86 % 0.0 in /  0 mm
05:20 0.2 °F /  -17.7 °C -2.0 °F /  -18.9 °C 1011.1 in /  34235.8 hPa South 12.2 mph /  19.6 km/h 19.1 mph /  30.7 km/h 86 % 0.0 in /  0 mm
05:25 0.2 °F /  -17.7 °C -2.0 °F /  -18.9 °C 1011.1 in /  34235.8 hPa South 17.2 mph /  27.7 km/h 17.2 mph /  27.7 km/h 85 % 0.0 in /  0 mm
05:30 0.2 °F /  -17.7 °C -2.0 °F /  -18.9 °C 1010.0 in /  34198.6 hPa South 10.8 mph /  17.4 km/h 17.2 mph /  27.7 km/h 85 % 0.0 in /  0 mm
05:35 0.2 °F /  -17.7 °C -2.0 °F /  -18.9 °C 1010.0 in /  34198.6 hPa SSW 13.0 mph /  20.9 km/h 17.2 mph /  27.7 km/h 84 % 0.0 in /  0 mm
05:40 0.1 °F /  -17.7 °C -2.0 °F /  -18.9 °C 1010.0 in /  34198.6 hPa South 13.0 mph /  20.9 km/h 13.0 mph /  20.9 km/h 84 % 0.0 in /  0 mm
05:45 0.1 °F /  -17.7 °C -2.0 °F /  -18.9 °C 1011.1 in /  34235.8 hPa SSW 18.3 mph /  29.5 km/h 18.3 mph /  29.5 km/h 84 % 0.0 in /  0 mm
05:50 0.1 °F /  -17.7 °C -2.0 °F /  -18.9 °C 1011.1 in /  34235.8 hPa South 11.9 mph /  19.2 km/h 18.3 mph /  29.5 km/h 83 % 0.0 in /  0 mm
05:55 0.1 °F /  -17.7 °C -2.0 °F /  -18.9 °C 1011.1 in /  34235.8 hPa South 15.8 mph /  25.4 km/h 18.3 mph /  29.5 km/h 83 % 0.0 in /  0 mm
06:00 0.1 °F /  -17.7 °C -2.0 °F /  -18.9 °C 1011.1 in /  34235.8 hPa SSW 12.6 mph /  20.3 km/h 17.2 mph /  27.7 km/h 83 % 0.0 in /  0 mm
06:05 0.1 °F /  -17.7 °C -2.0 °F /  -18.9 °C 1011.1 in /  34235.8 hPa SSW 12.6 mph /  20.3 km/h 17.2 mph /  27.7 km/h 83 % 0.0 in /  0 mm
06:10 0.1 °F /  -17.7 °C -2.0 °F /  -18.9 °C 1011.1 in /  34235.8 hPa SSW 11.1 mph /  17.9 km/h 19.5 mph /  31.4 km/h 83 % 0.0 in /  0 mm
06:15 0.1 °F /  -17.7 °C -2.0 °F /  -18.9 °C 1011.1 in /  34235.8 hPa South 10.5 mph /  16.9 km/h 21.6 mph /  34.8 km/h 83 % 0.0 in /  0 mm
06:20 0.1 °F /  -17.7 °C -2.0 °F /  -18.9 °C 1011.1 in /  34235.8 hPa SSE 11.9 mph /  19.2 km/h 21.6 mph /  34.8 km/h 83 % 0.0 in /  0 mm
06:25 0.1 °F /  -17.7 °C -2.0 °F /  -18.9 °C 1011.1 in /  34235.8 hPa SSE 12.2 mph /  19.6 km/h 20.1 mph /  32.3 km/h 82 % 0.0 in /  0 mm
06:30 0.1 °F /  -17.7 °C -2.0 °F /  -18.9 °C 1011.1 in /  34235.8 hPa SSE 10.1 mph /  16.3 km/h 19.8 mph /  31.9 km/h 82 % 0.0 in /  0 mm
06:35 0.0 °F /  -17.8 °C -3.0 °F /  -19.4 °C 1011.1 in /  34235.8 hPa South 14.0 mph /  22.5 km/h 19.8 mph /  31.9 km/h 82 % 0.0 in /  0 mm
06:40 0.0 °F /  -17.8 °C -3.0 °F /  -19.4 °C 1011.1 in /  34235.8 hPa South 11.6 mph /  18.7 km/h 19.8 mph /  31.9 km/h 82 % 0.0 in /  0 mm
06:45 0.0 °F /  -17.8 °C -3.0 °F /  -19.4 °C 1011.1 in /  34235.8 hPa South 13.0 mph /  20.9 km/h 19.1 mph /  30.7 km/h 82 % 0.0 in /  0 mm
06:50 0.0 °F /  -17.8 °C -3.0 °F /  -19.4 °C 1011.1 in /  34235.8 hPa SSW 8.7 mph /  14 km/h 19.1 mph /  30.7 km/h 82 % 0.0 in /  0 mm
06:55 0.0 °F /  -17.8 °C -3.0 °F /  -19.4 °C 1011.1 in /  34235.8 hPa SSW 12.6 mph /  20.3 km/h 19.1 mph /  30.7 km/h 82 % 0.0 in /  0 mm
07:00 0.1 °F /  -17.7 °C -2.0 °F /  -18.9 °C 1010.0 in /  34198.6 hPa SSE 11.6 mph /  18.7 km/h 13.0 mph /  20.9 km/h 82 % 0.0 in /  0 mm
07:05 0.1 °F /  -17.7 °C -2.0 °F /  -18.9 °C 1010.0 in /  34198.6 hPa SSE 9.7 mph /  15.6 km/h 19.8 mph /  31.9 km/h 82 % 0.0 in /  0 mm
07:10 0.2 °F /  -17.7 °C -3.0 °F /  -19.4 °C 1010.0 in /  34198.6 hPa South 20.6 mph /  33.2 km/h 20.6 mph /  33.2 km/h 81 % 0.0 in /  0 mm
07:15 0.2 °F /  -17.7 °C -3.0 °F /  -19.4 °C 1010.0 in /  34198.6 hPa South 16.3 mph /  26.2 km/h 20.6 mph /  33.2 km/h 80 % 0.0 in /  0 mm
07:20 0.2 °F /  -17.7 °C -3.0 °F /  -19.4 °C 1010.0 in /  34198.6 hPa South 10.1 mph /  16.3 km/h 20.6 mph /  33.2 km/h 80 % 0.0 in /  0 mm
07:25 0.2 °F /  -17.7 °C -3.0 °F /  -19.4 °C 1010.0 in /  34198.6 hPa SSW 21.6 mph /  34.8 km/h 21.6 mph /  34.8 km/h 80 % 0.0 in /  0 mm
07:30 0.3 °F /  -17.6 °C -3.0 °F /  -19.4 °C 1009.0 in /  34164.7 hPa South 14.0 mph /  22.5 km/h 21.6 mph /  34.8 km/h 79 % 0.0 in /  0 mm
07:35 0.3 °F /  -17.6 °C -3.0 °F /  -19.4 °C 1009.0 in /  34164.7 hPa South 14.0 mph /  22.5 km/h 21.6 mph /  34.8 km/h 79 % 0.0 in /  0 mm
07:40 0.3 °F /  -17.6 °C -3.0 °F /  -19.4 °C 1009.0 in /  34164.7 hPa South 13.0 mph /  20.9 km/h 20.6 mph /  33.2 km/h 79 % 0.0 in /  0 mm
07:45 0.3 °F /  -17.6 °C -3.0 °F /  -19.4 °C 1010.0 in /  34198.6 hPa SSW 9.3 mph /  15 km/h 20.6 mph /  33.2 km/h 79 % 0.0 in /  0 mm
07:50 0.3 °F /  -17.6 °C -3.0 °F /  -19.4 °C 1010.0 in /  34198.6 hPa SSE 9.3 mph /  15 km/h 16.6 mph /  26.7 km/h 78 % 0.0 in /  0 mm
07:55 0.3 °F /  -17.6 °C -3.0 °F /  -19.4 °C 1010.0 in /  34198.6 hPa SW 20.1 mph /  32.3 km/h 20.1 mph /  32.3 km/h 78 % 0.0 in /  0 mm
08:00 0.3 °F /  -17.6 °C -3.0 °F /  -19.4 °C 1010.0 in /  34198.6 hPa SSE 13.7 mph /  22 km/h 20.1 mph /  32.3 km/h 78 % 0.0 in /  0 mm
08:05 0.3 °F /  -17.6 °C -3.0 °F /  -19.4 °C 1010.0 in /  34198.6 hPa SSE 13.7 mph /  22 km/h 20.1 mph /  32.3 km/h 78 % 0.0 in /  0 mm
08:10 0.4 °F /  -17.6 °C -3.0 °F /  -19.4 °C 1010.0 in /  34198.6 hPa SSE 13.7 mph /  22 km/h 13.7 mph /  22 km/h 78 % 0.0 in /  0 mm
08:15 0.4 °F /  -17.6 °C -3.0 °F /  -19.4 °C 1010.0 in /  34198.6 hPa SSW 20.9 mph /  33.6 km/h 20.9 mph /  33.6 km/h 78 % 0.0 in /  0 mm
08:20 0.4 °F /  -17.6 °C -3.0 °F /  -19.4 °C 1010.0 in /  34198.6 hPa SSW 20.9 mph /  33.6 km/h 20.9 mph /  33.6 km/h 78 % 0.0 in /  0 mm
08:25 0.4 °F /  -17.6 °C -3.0 °F /  -19.4 °C 1010.0 in /  34198.6 hPa SSW 19.1 mph /  30.7 km/h 23.3 mph /  37.5 km/h 78 % 0.0 in /  0 mm
08:30 0.4 °F /  -17.6 °C -3.0 °F /  -19.4 °C 1010.0 in /  34198.6 hPa South 17.2 mph /  27.7 km/h 27.7 mph /  44.6 km/h 77 % 0.0 in /  0 mm
08:35 0.3 °F /  -17.6 °C -3.0 °F /  -19.4 °C 1010.0 in /  34198.6 hPa SSW 9.7 mph /  15.6 km/h 27.7 mph /  44.6 km/h 77 % 0.0 in /  0 mm
08:41 0.4 °F /  -17.6 °C -3.0 °F /  -19.4 °C 1010.0 in /  34198.6 hPa SSW 16.3 mph /  26.2 km/h 17.7 mph /  28.5 km/h 78 % 0.0 in /  0 mm
08:46 0.4 °F /  -17.6 °C -3.0 °F /  -19.4 °C 1010.0 in /  34198.6 hPa SSW 10.5 mph /  16.9 km/h 17.7 mph /  28.5 km/h 77 % 0.0 in /  0 mm
08:51 0.4 °F /  -17.6 °C -3.0 °F /  -19.4 °C 1010.0 in /  34198.6 hPa SSW 10.5 mph /  16.9 km/h 16.3 mph /  26.2 km/h 78 % 0.0 in /  0 mm
08:56 0.4 °F /  -17.6 °C -3.0 °F /  -19.4 °C 1010.0 in /  34198.6 hPa SSW 10.5 mph /  16.9 km/h 10.5 mph /  16.9 km/h 78 % 0.0 in /  0 mm
09:01 0.5 °F /  -17.5 °C -3.0 °F /  -19.4 °C 1010.0 in /  34198.6 hPa SSW 10.5 mph /  16.9 km/h 10.5 mph /  16.9 km/h 78 % 0.0 in /  0 mm
09:06 0.5 °F /  -17.5 °C -3.0 °F /  -19.4 °C 1010.0 in /  34198.6 hPa SSW 16.9 mph /  27.2 km/h 16.9 mph /  27.2 km/h 78 % 0.0 in /  0 mm
09:11 0.4 °F /  -17.6 °C -3.0 °F /  -19.4 °C 1010.0 in /  34198.6 hPa SSW 12.6 mph /  20.3 km/h 20.1 mph /  32.3 km/h 78 % 0.0 in /  0 mm
09:16 0.4 °F /  -17.6 °C -3.0 °F /  -19.4 °C 1010.0 in /  34198.6 hPa SSW 12.6 mph /  20.3 km/h 20.1 mph /  32.3 km/h 79 % 0.0 in /  0 mm
09:21 0.3 °F /  -17.6 °C -2.0 °F /  -18.9 °C 1010.0 in /  34198.6 hPa SSW 12.6 mph /  20.3 km/h 12.6 mph /  20.3 km/h 80 % 0.0 in /  0 mm
09:26 0.2 °F /  -17.7 °C -2.0 °F /  -18.9 °C 1010.0 in /  34198.6 hPa SSW 12.2 mph /  19.6 km/h 12.6 mph /  20.3 km/h 82 % 0.0 in /  0 mm
09:31 0.1 °F /  -17.7 °C -2.0 °F /  -18.9 °C 1010.0 in /  34198.6 hPa SSW 12.2 mph /  19.6 km/h 12.6 mph /  20.3 km/h 84 % 0.0 in /  0 mm
09:36 0.1 °F /  -17.7 °C -2.0 °F /  -18.9 °C 1010.0 in /  34198.6 hPa SSE 10.5 mph /  16.9 km/h 12.2 mph /  19.6 km/h 86 % 0.0 in /  0 mm
09:41 0.1 °F /  -17.7 °C -1.0 °F /  -18.3 °C 1010.0 in /  34198.6 hPa SSE 10.5 mph /  16.9 km/h 12.2 mph /  19.6 km/h 87 % 0.0 in /  0 mm
09:46 0.1 °F /  -17.7 °C -1.0 °F /  -18.3 °C 1010.0 in /  34198.6 hPa SSE 10.5 mph /  16.9 km/h 10.5 mph /  16.9 km/h 88 % 0.0 in /  0 mm
09:51 0.2 °F /  -17.7 °C -1.0 °F /  -18.3 °C 1010.0 in /  34198.6 hPa SSE 10.5 mph /  16.9 km/h 10.5 mph /  16.9 km/h 89 % 0.0 in /  0 mm
09:56 0.2 °F /  -17.7 °C -1.0 °F /  -18.3 °C 1010.0 in /  34198.6 hPa SSE 10.5 mph /  16.9 km/h 10.5 mph /  16.9 km/h 88 % 0.0 in /  0 mm
10:01 0.3 °F /  -17.6 °C -1.0 °F /  -18.3 °C 1009.0 in /  34164.7 hPa SSE 10.5 mph /  16.9 km/h 10.5 mph /  16.9 km/h 89 % 0.0 in /  0 mm
10:06 0.3 °F /  -17.6 °C -1.0 °F /  -18.3 °C 1009.0 in /  34164.7 hPa SSE 10.5 mph /  16.9 km/h 10.5 mph /  16.9 km/h 89 % 0.0 in /  0 mm
10:11 0.3 °F /  -17.6 °C -1.0 °F /  -18.3 °C 1009.0 in /  34164.7 hPa SSE 10.5 mph /  16.9 km/h 10.5 mph /  16.9 km/h 89 % 0.0 in /  0 mm
10:17 0.2 °F /  -17.7 °C -1.0 °F /  -18.3 °C 1009.0 in /  34164.7 hPa SSE 10.5 mph /  16.9 km/h 10.5 mph /  16.9 km/h 90 % 0.0 in /  0 mm
10:22 0.2 °F /  -17.7 °C -1.0 °F /  -18.3 °C 1009.0 in /  34164.7 hPa SSE 10.5 mph /  16.9 km/h 10.5 mph /  16.9 km/h 91 % 0.0 in /  0 mm
10:27 0.2 °F /  -17.7 °C -1.0 °F /  -18.3 °C 1009.0 in /  34164.7 hPa SSE 10.5 mph /  16.9 km/h 10.5 mph /  16.9 km/h 91 % 0.0 in /  0 mm
10:32 0.2 °F /  -17.7 °C -1.0 °F /  -18.3 °C 1010.0 in /  34198.6 hPa SSE 10.5 mph /  16.9 km/h 10.5 mph /  16.9 km/h 92 % 0.0 in /  0 mm
10:37 0.2 °F /  -17.7 °C -1.0 °F /  -18.3 °C 1010.0 in /  34198.6 hPa SSE 10.5 mph /  16.9 km/h 10.5 mph /  16.9 km/h 92 % 0.0 in /  0 mm
10:42 0.2 °F /  -17.7 °C -1.0 °F /  -18.3 °C 1010.0 in /  34198.6 hPa SSE 10.5 mph /  16.9 km/h 10.5 mph /  16.9 km/h 92 % 0.0 in /  0 mm
10:47 0.2 °F /  -17.7 °C -1.0 °F /  -18.3 °C 1009.0 in /  34164.7 hPa SSE 10.5 mph /  16.9 km/h 10.5 mph /  16.9 km/h 92 % 0.0 in /  0 mm
10:52 0.3 °F /  -17.6 °C -1.0 °F /  -18.3 °C 1009.0 in /  34164.7 hPa SSE 10.5 mph /  16.9 km/h 10.5 mph /  16.9 km/h 92 % 0.0 in /  0 mm
10:57 0.3 °F /  -17.6 °C -1.0 °F /  -18.3 °C 1009.0 in /  34164.7 hPa SSE 10.5 mph /  16.9 km/h 10.5 mph /  16.9 km/h 92 % 0.0 in /  0 mm
11:02 0.3 °F /  -17.6 °C 0.0 °F /  -17.8 °C 1009.0 in /  34164.7 hPa SSE 10.5 mph /  16.9 km/h 10.5 mph /  16.9 km/h 93 % 0.0 in /  0 mm
11:07 0.3 °F /  -17.6 °C 0.0 °F /  -17.8 °C 1009.0 in /  34164.7 hPa SSE 10.5 mph /  16.9 km/h 10.5 mph /  16.9 km/h 93 % 0.0 in /  0 mm
11:12 0.3 °F /  -17.6 °C 0.0 °F /  -17.8 °C 1009.0 in /  34164.7 hPa SSE 10.5 mph /  16.9 km/h 10.5 mph /  16.9 km/h 94 % 0.0 in /  0 mm
11:17 0.3 °F /  -17.6 °C 0.0 °F /  -17.8 °C 1009.0 in /  34164.7 hPa SSE 10.5 mph /  16.9 km/h 10.5 mph /  16.9 km/h 94 % 0.0 in /  0 mm
11:22 0.3 °F /  -17.6 °C 0.0 °F /  -17.8 °C 1009.0 in /  34164.7 hPa SSE 10.5 mph /  16.9 km/h 10.5 mph /  16.9 km/h 95 % 0.0 in /  0 mm
11:27 0.4 °F /  -17.6 °C 0.0 °F /  -17.8 °C 1009.0 in /  34164.7 hPa SSE 10.5 mph /  16.9 km/h 10.5 mph /  16.9 km/h 96 % 0.0 in /  0 mm
11:32 0.4 °F /  -17.6 °C 0.0 °F /  -17.8 °C 1009.0 in /  34164.7 hPa SSE 10.5 mph /  16.9 km/h 10.5 mph /  16.9 km/h 96 % 0.0 in /  0 mm
11:37 0.4 °F /  -17.6 °C 0.0 °F /  -17.8 °C 1009.0 in /  34164.7 hPa SSE 10.5 mph /  16.9 km/h 10.5 mph /  16.9 km/h 96 % 0.0 in /  0 mm
11:42 0.4 °F /  -17.6 °C 0.0 °F /  -17.8 °C 1009.0 in /  34164.7 hPa SSE 10.5 mph /  16.9 km/h 10.5 mph /  16.9 km/h 96 % 0.0 in /  0 mm
11:47 0.5 °F /  -17.5 °C 1.0 °F /  -17.2 °C 1009.0 in /  34164.7 hPa SSE 10.5 mph /  16.9 km/h 10.5 mph /  16.9 km/h 96 % 0.0 in /  0 mm
11:52 0.5 °F /  -17.5 °C 1.0 °F /  -17.2 °C 1009.0 in /  34164.7 hPa SSE 10.5 mph /  16.9 km/h 10.5 mph /  16.9 km/h 97 % 0.0 in /  0 mm
11:57 0.6 °F /  -17.4 °C 1.0 °F /  -17.2 °C 1009.0 in /  34164.7 hPa SSE 10.5 mph /  16.9 km/h 10.5 mph /  16.9 km/h 97 % 0.0 in /  0 mm
12:02 0.7 °F /  -17.4 °C 1.0 °F /  -17.2 °C 1009.0 in /  34164.7 hPa SSE 10.5 mph /  16.9 km/h 10.5 mph /  16.9 km/h 97 % 0.0 in /  0 mm
12:07 0.8 °F /  -17.3 °C 1.0 °F /  -17.2 °C 1009.0 in /  34164.7 hPa SSE 10.5 mph /  16.9 km/h 10.5 mph /  16.9 km/h 97 % 0.0 in /  0 mm
12:12 0.8 °F /  -17.3 °C 1.0 °F /  -17.2 °C 1009.0 in /  34164.7 hPa SSE 10.5 mph /  16.9 km/h 10.5 mph /  16.9 km/h 97 % 0.0 in /  0 mm
12:18 0.8 °F /  -17.3 °C 1.0 °F /  -17.2 °C 1009.0 in /  34164.7 hPa SSE 10.5 mph /  16.9 km/h 10.5 mph /  16.9 km/h 96 % 0.0 in /  0 mm
12:23 0.8 °F /  -17.3 °C 1.0 °F /  -17.2 °C 1009.0 in /  34164.7 hPa SSE 10.5 mph /  16.9 km/h 10.5 mph /  16.9 km/h 96 % 0.0 in /  0 mm
12:28 0.8 °F /  -17.3 °C 1.0 °F /  -17.2 °C 1009.0 in /  34164.7 hPa SSE 10.5 mph /  16.9 km/h 10.5 mph /  16.9 km/h 96 % 0.0 in /  0 mm
12:33 0.8 °F /  -17.3 °C 1.0 °F /  -17.2 °C 1009.0 in /  34164.7 hPa SSE 10.5 mph /  16.9 km/h 10.5 mph /  16.9 km/h 96 % 0.0 in /  0 mm
12:38 0.7 °F /  -17.4 °C 0.0 °F /  -17.8 °C 1009.0 in /  34164.7 hPa SSE 10.5 mph /  16.9 km/h 10.5 mph /  16.9 km/h 95 % 0.0 in /  0 mm
12:43 0.7 °F /  -17.4 °C 0.0 °F /  -17.8 °C 1009.0 in /  34164.7 hPa SSE 10.5 mph /  16.9 km/h 10.5 mph /  16.9 km/h 95 % 0.0 in /  0 mm
12:48 0.8 °F /  -17.3 °C 1.0 °F /  -17.2 °C 1010.0 in /  34198.6 hPa SSE 10.5 mph /  16.9 km/h 10.5 mph /  16.9 km/h 96 % 0.0 in /  0 mm
12:53 0.7 °F /  -17.4 °C 1.0 °F /  -17.2 °C 1010.0 in /  34198.6 hPa SSE 10.5 mph /  16.9 km/h 10.5 mph /  16.9 km/h 96 % 0.0 in /  0 mm
12:58 0.8 °F /  -17.3 °C 1.0 °F /  -17.2 °C 1010.0 in /  34198.6 hPa SSE 10.5 mph /  16.9 km/h 10.5 mph /  16.9 km/h 96 % 0.0 in /  0 mm
13:03 0.9 °F /  -17.3 °C 1.0 °F /  -17.2 °C 1009.0 in /  34164.7 hPa SSE 10.5 mph /  16.9 km/h 10.5 mph /  16.9 km/h 96 % 0.0 in /  0 mm
13:08 0.9 °F /  -17.3 °C 1.0 °F /  -17.2 °C 1009.0 in /  34164.7 hPa SSE 10.5 mph /  16.9 km/h 10.5 mph /  16.9 km/h 96 % 0.0 in /  0 mm
13:13 0.9 °F /  -17.3 °C 1.0 °F /  -17.2 °C 1009.0 in /  34164.7 hPa SSE 10.5 mph /  16.9 km/h 10.5 mph /  16.9 km/h 96 % 0.0 in /  0 mm
13:18 0.9 °F /  -17.3 °C 1.0 °F /  -17.2 °C 1009.0 in /  34164.7 hPa SSE 10.5 mph /  16.9 km/h 10.5 mph /  16.9 km/h 97 % 0.0 in /  0 mm
13:23 1.0 °F /  -17.2 °C 1.0 °F /  -17.2 °C 1009.0 in /  34164.7 hPa SSE 10.5 mph /  16.9 km/h 10.5 mph /  16.9 km/h 96 % 0.0 in /  0 mm
13:28 1.0 °F /  -17.2 °C 1.0 °F /  -17.2 °C 1008.0 in /  34130.9 hPa SSE 10.5 mph /  16.9 km/h 10.5 mph /  16.9 km/h 97 % 0.0 in /  0 mm
13:33 1.0 °F /  -17.2 °C 1.0 °F /  -17.2 °C 1008.0 in /  34130.9 hPa SSE 10.5 mph /  16.9 km/h 10.5 mph /  16.9 km/h 97 % 0.0 in /  0 mm
13:38 1.0 °F /  -17.2 °C 1.0 °F /  -17.2 °C 1008.0 in /  34130.9 hPa SSE 10.5 mph /  16.9 km/h 10.5 mph /  16.9 km/h 97 % 0.0 in /  0 mm
13:43 1.0 °F /  -17.2 °C 1.0 °F /  -17.2 °C 1008.0 in /  34130.9 hPa SSE 10.5 mph /  16.9 km/h 10.5 mph /  16.9 km/h 97 % 0.0 in /  0 mm
13:49 1.0 °F /  -17.2 °C 1.0 °F /  -17.2 °C 1008.0 in /  34130.9 hPa SSE 10.5 mph /  16.9 km/h 10.5 mph /  16.9 km/h 97 % 0.0 in /  0 mm
13:54 1.0 °F /  -17.2 °C 1.0 °F /  -17.2 °C 1008.0 in /  34130.9 hPa SSE 10.5 mph /  16.9 km/h 10.5 mph /  16.9 km/h 97 % 0.0 in /  0 mm
13:59 1.1 °F /  -17.2 °C 1.0 °F /  -17.2 °C 1008.0 in /  34130.9 hPa SSE 10.5 mph /  16.9 km/h 10.5 mph /  16.9 km/h 97 % 0.0 in /  0 mm
14:04 1.1 °F /  -17.2 °C 1.0 °F /  -17.2 °C 1008.0 in /  34130.9 hPa SSE 10.5 mph /  16.9 km/h 10.5 mph /  16.9 km/h 97 % 0.0 in /  0 mm
14:09 1.1 °F /  -17.2 °C 1.0 °F /  -17.2 °C 1008.0 in /  34130.9 hPa SSE 10.5 mph /  16.9 km/h 10.5 mph /  16.9 km/h 97 % 0.0 in /  0 mm
14:14 1.1 °F /  -17.2 °C 1.0 °F /  -17.2 °C 1008.0 in /  34130.9 hPa SSE 10.5 mph /  16.9 km/h 10.5 mph /  16.9 km/h 97 % 0.0 in /  0 mm
14:19 1.2 °F /  -17.1 °C 1.0 °F /  -17.2 °C 1008.0 in /  34130.9 hPa SSE 10.5 mph /  16.9 km/h 10.5 mph /  16.9 km/h 97 % 0.0 in /  0 mm
14:24 1.2 °F /  -17.1 °C 1.0 °F /  -17.2 °C 1008.0 in /  34130.9 hPa SSE 10.5 mph /  16.9 km/h 10.5 mph /  16.9 km/h 98 % 0.0 in /  0 mm
14:29 1.2 °F /  -17.1 °C 1.0 °F /  -17.2 °C 1008.0 in /  34130.9 hPa SSE 10.5 mph /  16.9 km/h 10.5 mph /  16.9 km/h 98 % 0.0 in /  0 mm
14:34 1.2 °F /  -17.1 °C 1.0 °F /  -17.2 °C 1008.0 in /  34130.9 hPa SSE 10.5 mph /  16.9 km/h 10.5 mph /  16.9 km/h 98 % 0.0 in /  0 mm
14:39 1.2 °F /  -17.1 °C 1.0 °F /  -17.2 °C 1008.0 in /  34130.9 hPa SSE 10.5 mph /  16.9 km/h 10.5 mph /  16.9 km/h 98 % 0.0 in /  0 mm
14:44 1.3 °F /  -17.1 °C 1.0 °F /  -17.2 °C 1008.0 in /  34130.9 hPa SSE 10.5 mph /  16.9 km/h 10.5 mph /  16.9 km/h 98 % 0.0 in /  0 mm
14:49 1.4 °F /  -17 °C 1.0 °F /  -17.2 °C 1008.0 in /  34130.9 hPa SSE 10.5 mph /  16.9 km/h 10.5 mph /  16.9 km/h 98 % 0.0 in /  0 mm
14:54 1.4 °F /  -17 °C 1.0 °F /  -17.2 °C 1008.0 in /  34130.9 hPa SSE 10.5 mph /  16.9 km/h 10.5 mph /  16.9 km/h 98 % 0.0 in /  0 mm
14:59 1.6 °F /  -16.9 °C 2.0 °F /  -16.7 °C 1008.0 in /  34130.9 hPa SSE 10.5 mph /  16.9 km/h 10.5 mph /  16.9 km/h 98 % 0.0 in /  0 mm
15:04 1.6 °F /  -16.9 °C 2.0 °F /  -16.7 °C 1008.0 in /  34130.9 hPa SSE 10.5 mph /  16.9 km/h 10.5 mph /  16.9 km/h 98 % 0.0 in /  0 mm
15:09 1.7 °F /  -16.8 °C 2.0 °F /  -16.7 °C 1008.0 in /  34130.9 hPa SSE 10.5 mph /  16.9 km/h 10.5 mph /  16.9 km/h 98 % 0.0 in /  0 mm
15:15 1.9 °F /  -16.7 °C 2.0 °F /  -16.7 °C 1008.0 in /  34130.9 hPa SSE 10.5 mph /  16.9 km/h 10.5 mph /  16.9 km/h 98 % 0.0 in /  0 mm
15:20 2.0 °F /  -16.7 °C 2.0 °F /  -16.7 °C 1008.0 in /  34130.9 hPa SSE 10.5 mph /  16.9 km/h 10.5 mph /  16.9 km/h 98 % 0.0 in /  0 mm
15:25 2.0 °F /  -16.7 °C 2.0 °F /  -16.7 °C 1008.0 in /  34130.9 hPa SSE 10.5 mph /  16.9 km/h 10.5 mph /  16.9 km/h 98 % 0.0 in /  0 mm
15:30 2.0 °F /  -16.7 °C 2.0 °F /  -16.7 °C 1009.0 in /  34164.7 hPa SSE 10.5 mph /  16.9 km/h 10.5 mph /  16.9 km/h 98 % 0.0 in /  0 mm
15:35 2.0 °F /  -16.7 °C 2.0 °F /  -16.7 °C 1009.0 in /  34164.7 hPa SSE 10.5 mph /  16.9 km/h 10.5 mph /  16.9 km/h 98 % 0.0 in /  0 mm
15:40 2.1 °F /  -16.6 °C 2.0 °F /  -16.7 °C 1009.0 in /  34164.7 hPa SSE 10.5 mph /  16.9 km/h 10.5 mph /  16.9 km/h 98 % 0.3 in /  7.62 mm
15:45 2.1 °F /  -16.6 °C 2.0 °F /  -16.7 °C 1009.0 in /  34164.7 hPa SSE 10.5 mph /  16.9 km/h 10.5 mph /  16.9 km/h 98 % 0.3 in /  7.62 mm
15:50 2.1 °F /  -16.6 °C 2.0 °F /  -16.7 °C 1009.0 in /  34164.7 hPa SSE 10.5 mph /  16.9 km/h 10.5 mph /  16.9 km/h 98 % 0.3 in /  7.62 mm
15:55 2.3 °F /  -16.5 °C 3.0 °F /  -16.1 °C 1009.0 in /  34164.7 hPa SSE 10.5 mph /  16.9 km/h 10.5 mph /  16.9 km/h 98 % 0.5 in /  12.7 mm
16:00 2.3 °F /  -16.5 °C 3.0 °F /  -16.1 °C 1009.0 in /  34164.7 hPa SSE 10.5 mph /  16.9 km/h 10.5 mph /  16.9 km/h 98 % 0.5 in /  12.7 mm
16:05 2.2 °F /  -16.6 °C 2.0 °F /  -16.7 °C 1009.0 in /  34164.7 hPa SSE 10.5 mph /  16.9 km/h 10.5 mph /  16.9 km/h 98 % 0.5 in /  12.7 mm
16:10 2.1 °F /  -16.6 °C 2.0 °F /  -16.7 °C 1009.0 in /  34164.7 hPa SSE 10.5 mph /  16.9 km/h 10.5 mph /  16.9 km/h 98 % 0.5 in /  12.7 mm
16:15 2.1 °F /  -16.6 °C 2.0 °F /  -16.7 °C 1009.0 in /  34164.7 hPa SSE 10.5 mph /  16.9 km/h 10.5 mph /  16.9 km/h 98 % 0.5 in /  12.7 mm
16:20 2.2 °F /  -16.6 °C 2.0 °F /  -16.7 °C 1009.0 in /  34164.7 hPa SSE 10.5 mph /  16.9 km/h 10.5 mph /  16.9 km/h 98 % 0.5 in /  12.7 mm
16:25 2.2 °F /  -16.6 °C 2.0 °F /  -16.7 °C 1009.0 in /  34164.7 hPa SSE 10.5 mph /  16.9 km/h 10.5 mph /  16.9 km/h 98 % 0.5 in /  12.7 mm
16:30 2.1 °F /  -16.6 °C 2.0 °F /  -16.7 °C 1009.0 in /  34164.7 hPa SSE 10.5 mph /  16.9 km/h 10.5 mph /  16.9 km/h 98 % 0.5 in /  12.7 mm
16:35 2.0 °F /  -16.7 °C 2.0 °F /  -16.7 °C 1009.0 in /  34164.7 hPa SSE 10.5 mph /  16.9 km/h 10.5 mph /  16.9 km/h 98 % 0.8 in /  20.32 mm
16:40 2.0 °F /  -16.7 °C 2.0 °F /  -16.7 °C 1009.0 in /  34164.7 hPa SSE 10.5 mph /  16.9 km/h 10.5 mph /  16.9 km/h 98 % 0.5 in /  12.7 mm
16:45 1.9 °F /  -16.7 °C 2.0 °F /  -16.7 °C 1009.0 in /  34164.7 hPa SSE 10.5 mph /  16.9 km/h 10.5 mph /  16.9 km/h 98 % 0.5 in /  12.7 mm
16:50 2.0 °F /  -16.7 °C 2.0 °F /  -16.7 °C 1009.0 in /  34164.7 hPa SSE 10.5 mph /  16.9 km/h 10.5 mph /  16.9 km/h 98 % 0.5 in /  12.7 mm
16:55 2.1 °F /  -16.6 °C 2.0 °F /  -16.7 °C 1009.0 in /  34164.7 hPa SSE 10.5 mph /  16.9 km/h 10.5 mph /  16.9 km/h 98 % 0.3 in /  7.62 mm
17:00 2.3 °F /  -16.5 °C 3.0 °F /  -16.1 °C 1009.0 in /  34164.7 hPa SSE 10.5 mph /  16.9 km/h 10.5 mph /  16.9 km/h 98 % 0.3 in /  7.62 mm
17:06 2.4 °F /  -16.4 °C 3.0 °F /  -16.1 °C 1009.0 in /  34164.7 hPa SSW 6.9 mph /  11.1 km/h 6.9 mph /  11.1 km/h 98 % 0.3 in /  7.62 mm
17:11 2.4 °F /  -16.4 °C 3.0 °F /  -16.1 °C 1009.0 in /  34164.7 hPa SSW 6.9 mph /  11.1 km/h 6.9 mph /  11.1 km/h 98 % 0.3 in /  7.62 mm
17:16 2.4 °F /  -16.4 °C 3.0 °F /  -16.1 °C 1009.0 in /  34164.7 hPa SSW 6.9 mph /  11.1 km/h 6.9 mph /  11.1 km/h 98 % 0.3 in /  7.62 mm
17:21 2.3 °F /  -16.5 °C 3.0 °F /  -16.1 °C 1009.0 in /  34164.7 hPa SSW 6.9 mph /  11.1 km/h 6.9 mph /  11.1 km/h 98 % 0.3 in /  7.62 mm
17:26 2.2 °F /  -16.6 °C 2.0 °F /  -16.7 °C 1009.0 in /  34164.7 hPa SSW 6.9 mph /  11.1 km/h 6.9 mph /  11.1 km/h 98 % 0.3 in /  7.62 mm
17:31 2.1 °F /  -16.6 °C 2.0 °F /  -16.7 °C 1009.0 in /  34164.7 hPa SSW 6.9 mph /  11.1 km/h 6.9 mph /  11.1 km/h 98 % 0.0 in /  0 mm
17:36 2.0 °F /  -16.7 °C 2.0 °F /  -16.7 °C 1009.0 in /  34164.7 hPa SSW 6.9 mph /  11.1 km/h 6.9 mph /  11.1 km/h 97 % 0.0 in /  0 mm
17:41 1.9 °F /  -16.7 °C 2.0 °F /  -16.7 °C 1009.0 in /  34164.7 hPa SSW 6.9 mph /  11.1 km/h 6.9 mph /  11.1 km/h 98 % 0.0 in /  0 mm
17:46 1.8 °F /  -16.8 °C 1.0 °F /  -17.2 °C 1009.0 in /  34164.7 hPa SSW 6.9 mph /  11.1 km/h 6.9 mph /  11.1 km/h 97 % 0.0 in /  0 mm
17:51 1.7 °F /  -16.8 °C 1.0 °F /  -17.2 °C 1009.0 in /  34164.7 hPa SSW 6.9 mph /  11.1 km/h 6.9 mph /  11.1 km/h 97 % 0.0 in /  0 mm
17:56 1.7 °F /  -16.8 °C 1.0 °F /  -17.2 °C 1009.0 in /  34164.7 hPa SSW 6.9 mph /  11.1 km/h 6.9 mph /  11.1 km/h 97 % 0.0 in /  0 mm
18:01 1.7 °F /  -16.8 °C 1.0 °F /  -17.2 °C 1010.0 in /  34198.6 hPa SSW 1.8 mph /  2.9 km/h 1.8 mph /  2.9 km/h 97 % 0.0 in /  0 mm
18:06 1.7 °F /  -16.8 °C 2.0 °F /  -16.7 °C 1010.0 in /  34198.6 hPa SSW 1.8 mph /  2.9 km/h 1.8 mph /  2.9 km/h 98 % 0.0 in /  0 mm
18:12 1.7 °F /  -16.8 °C 2.0 °F /  -16.7 °C 1010.0 in /  34198.6 hPa SSW 1.8 mph /  2.9 km/h 1.8 mph /  2.9 km/h 98 % 0.0 in /  0 mm
18:17 1.7 °F /  -16.8 °C 2.0 °F /  -16.7 °C 1010.0 in /  34198.6 hPa SSW 1.8 mph /  2.9 km/h 1.8 mph /  2.9 km/h 98 % 0.0 in /  0 mm
18:22 1.7 °F /  -16.8 °C 2.0 °F /  -16.7 °C 1010.0 in /  34198.6 hPa SSW 1.8 mph /  2.9 km/h 1.8 mph /  2.9 km/h 98 % 0.0 in /  0 mm
18:27 1.7 °F /  -16.8 °C 2.0 °F /  -16.7 °C 1010.0 in /  34198.6 hPa SSW 1.8 mph /  2.9 km/h 1.8 mph /  2.9 km/h 98 % 0.0 in /  0 mm
18:32 1.7 °F /  -16.8 °C 2.0 °F /  -16.7 °C 1010.0 in /  34198.6 hPa SSW 1.8 mph /  2.9 km/h 1.8 mph /  2.9 km/h 98 % 0.0 in /  0 mm
18:37 1.6 °F /  -16.9 °C 2.0 °F /  -16.7 °C 1010.0 in /  34198.6 hPa SSW 1.8 mph /  2.9 km/h 1.8 mph /  2.9 km/h 98 % 0.0 in /  0 mm
18:42 1.6 °F /  -16.9 °C 2.0 °F /  -16.7 °C 1010.0 in /  34198.6 hPa SSW 1.8 mph /  2.9 km/h 1.8 mph /  2.9 km/h 98 % 0.0 in /  0 mm
18:47 1.6 °F /  -16.9 °C 2.0 °F /  -16.7 °C 1010.0 in /  34198.6 hPa SSW 1.8 mph /  2.9 km/h 1.8 mph /  2.9 km/h 98 % 0.0 in /  0 mm
18:52 1.5 °F /  -16.9 °C 2.0 °F /  -16.7 °C 1010.0 in /  34198.6 hPa SSW 1.8 mph /  2.9 km/h 1.8 mph /  2.9 km/h 98 % 0.0 in /  0 mm
18:57 1.4 °F /  -17 °C 1.0 °F /  -17.2 °C 1010.0 in /  34198.6 hPa SSW 1.8 mph /  2.9 km/h 1.8 mph /  2.9 km/h 98 % 0.0 in /  0 mm
19:02 1.3 °F /  -17.1 °C 1.0 °F /  -17.2 °C 1010.0 in /  34198.6 hPa Calm     97 % 0.0 in /  0 mm
19:07 1.1 °F /  -17.2 °C 1.0 °F /  -17.2 °C 1010.0 in /  34198.6 hPa Calm     97 % 0.3 in /  7.62 mm
19:12 1.0 °F /  -17.2 °C 1.0 °F /  -17.2 °C 1010.0 in /  34198.6 hPa Calm     97 % 0.3 in /  7.62 mm
19:17 0.9 °F /  -17.3 °C 1.0 °F /  -17.2 °C 1011.1 in /  34235.8 hPa Calm     97 % 0.3 in /  7.62 mm
19:22 0.9 °F /  -17.3 °C 1.0 °F /  -17.2 °C 1011.1 in /  34235.8 hPa Calm     97 % 0.3 in /  7.62 mm
19:27 1.0 °F /  -17.2 °C 1.0 °F /  -17.2 °C 1011.1 in /  34235.8 hPa Calm     97 % 0.3 in /  7.62 mm
19:32 1.1 °F /  -17.2 °C 1.0 °F /  -17.2 °C 1011.1 in /  34235.8 hPa Calm     98 % 0.3 in /  7.62 mm
19:37 1.3 °F /  -17.1 °C 1.0 °F /  -17.2 °C 1011.1 in /  34235.8 hPa Calm     98 % 0.3 in /  7.62 mm
19:42 1.4 °F /  -17 °C 1.0 °F /  -17.2 °C 1011.1 in /  34235.8 hPa Calm     98 % 0.3 in /  7.62 mm
19:47 1.5 °F /  -16.9 °C 2.0 °F /  -16.7 °C 1010.0 in /  34198.6 hPa West 9.0 mph /  14.5 km/h 9.0 mph /  14.5 km/h 98 % 0.3 in /  7.62 mm
19:52 1.6 °F /  -16.9 °C 2.0 °F /  -16.7 °C 1010.0 in /  34198.6 hPa West 9.0 mph /  14.5 km/h 9.0 mph /  14.5 km/h 98 % 0.3 in /  7.62 mm
19:57 1.8 °F /  -16.8 °C 2.0 °F /  -16.7 °C 1010.0 in /  34198.6 hPa West 9.0 mph /  14.5 km/h 9.0 mph /  14.5 km/h 98 % 0.3 in /  7.62 mm
20:02 2.0 °F /  -16.7 °C 2.0 °F /  -16.7 °C 1011.1 in /  34235.8 hPa West 9.0 mph /  14.5 km/h 9.0 mph /  14.5 km/h 98 % 0.3 in /  7.62 mm
20:07 2.0 °F /  -16.7 °C 2.0 °F /  -16.7 °C 1011.1 in /  34235.8 hPa West 9.0 mph /  14.5 km/h 9.0 mph /  14.5 km/h 98 % 0.3 in /  7.62 mm
20:12 2.0 °F /  -16.7 °C 2.0 °F /  -16.7 °C 1011.1 in /  34235.8 hPa West 9.0 mph /  14.5 km/h 9.0 mph /  14.5 km/h 98 % 0.3 in /  7.62 mm
20:18 2.1 °F /  -16.6 °C 2.0 °F /  -16.7 °C 1011.1 in /  34235.8 hPa West 9.0 mph /  14.5 km/h 9.0 mph /  14.5 km/h 98 % 0.3 in /  7.62 mm
20:23 2.0 °F /  -16.7 °C 2.0 °F /  -16.7 °C 1011.1 in /  34235.8 hPa West 9.0 mph /  14.5 km/h 9.0 mph /  14.5 km/h 98 % 0.3 in /  7.62 mm
20:28 2.1 °F /  -16.6 °C 2.0 °F /  -16.7 °C 1011.1 in /  34235.8 hPa West 9.0 mph /  14.5 km/h 9.0 mph /  14.5 km/h 98 % 0.3 in /  7.62 mm
20:33 2.1 °F /  -16.6 °C 2.0 °F /  -16.7 °C 1011.1 in /  34235.8 hPa West 9.0 mph /  14.5 km/h 9.0 mph /  14.5 km/h 98 % 0.5 in /  12.7 mm
20:38 2.2 °F /  -16.6 °C 2.0 °F /  -16.7 °C 1011.1 in /  34235.8 hPa West 9.0 mph /  14.5 km/h 9.0 mph /  14.5 km/h 98 % 0.5 in /  12.7 mm
20:43 2.2 °F /  -16.6 °C 2.0 °F /  -16.7 °C 1011.1 in /  34235.8 hPa West 9.0 mph /  14.5 km/h 9.0 mph /  14.5 km/h 98 % 0.8 in /  20.32 mm
20:48 2.2 °F /  -16.6 °C 2.0 °F /  -16.7 °C 1011.1 in /  34235.8 hPa West 9.0 mph /  14.5 km/h 9.0 mph /  14.5 km/h 98 % 0.8 in /  20.32 mm
20:53 2.2 °F /  -16.6 °C 2.0 °F /  -16.7 °C 1011.1 in /  34235.8 hPa West 9.0 mph /  14.5 km/h 9.0 mph /  14.5 km/h 98 % 1.3 in /  33.02 mm
20:58 2.2 °F /  -16.6 °C 2.0 °F /  -16.7 °C 1011.1 in /  34235.8 hPa West 9.0 mph /  14.5 km/h 9.0 mph /  14.5 km/h 98 % 1.3 in /  33.02 mm
21:03 2.2 °F /  -16.6 °C 2.0 °F /  -16.7 °C 1012.1 in /  34269.7 hPa West 9.0 mph /  14.5 km/h 9.0 mph /  14.5 km/h 98 % 1.3 in /  33.02 mm
21:08 2.1 °F /  -16.6 °C 2.0 °F /  -16.7 °C 1012.1 in /  34269.7 hPa West 9.0 mph /  14.5 km/h 9.0 mph /  14.5 km/h 98 % 0.8 in /  20.32 mm
21:13 2.0 °F /  -16.7 °C 2.0 °F /  -16.7 °C 1012.1 in /  34269.7 hPa West 9.0 mph /  14.5 km/h 9.0 mph /  14.5 km/h 98 % 1.3 in /  33.02 mm
21:18 2.0 °F /  -16.7 °C 2.0 °F /  -16.7 °C 1012.1 in /  34269.7 hPa West 9.0 mph /  14.5 km/h 9.0 mph /  14.5 km/h 98 % 1.3 in /  33.02 mm
21:23 2.0 °F /  -16.7 °C 2.0 °F /  -16.7 °C 1012.1 in /  34269.7 hPa West 9.0 mph /  14.5 km/h 9.0 mph /  14.5 km/h 98 % 1.3 in /  33.02 mm
21:28 2.0 °F /  -16.7 °C 2.0 °F /  -16.7 °C 1012.1 in /  34269.7 hPa West 9.0 mph /  14.5 km/h 9.0 mph /  14.5 km/h 98 % 1.3 in /  33.02 mm
21:33 2.0 °F /  -16.7 °C 2.0 °F /  -16.7 °C 1012.1 in /  34269.7 hPa West 9.0 mph /  14.5 km/h 9.0 mph /  14.5 km/h 98 % 1.0 in /  25.4 mm
21:38 1.9 °F /  -16.7 °C 2.0 °F /  -16.7 °C 1012.1 in /  34269.7 hPa Calm     98 % 1.0 in /  25.4 mm
21:43 1.9 °F /  -16.7 °C 2.0 °F /  -16.7 °C 1012.1 in /  34269.7 hPa Calm     98 % 0.8 in /  20.32 mm
21:48 1.9 °F /  -16.7 °C 2.0 °F /  -16.7 °C 1012.1 in /  34269.7 hPa Calm     98 % 0.3 in /  7.62 mm
21:54 1.9 °F /  -16.7 °C 2.0 °F /  -16.7 °C 1012.1 in /  34269.7 hPa Calm     98 % 0.3 in /  7.62 mm
21:59 1.9 °F /  -16.7 °C 2.0 °F /  -16.7 °C 1013.1 in /  34303.6 hPa Calm     98 % 0.3 in /  7.62 mm
22:04 1.8 °F /  -16.8 °C 2.0 °F /  -16.7 °C 1013.1 in /  34303.6 hPa Calm     98 % 0.3 in /  7.62 mm
22:09 1.8 °F /  -16.8 °C 2.0 °F /  -16.7 °C 1013.1 in /  34303.6 hPa Calm     98 % 0.3 in /  7.62 mm
22:14 1.9 °F /  -16.7 °C 2.0 °F /  -16.7 °C 1013.1 in /  34303.6 hPa West 2.6 mph /  4.2 km/h 2.6 mph /  4.2 km/h 98 % 0.3 in /  7.62 mm
22:19 2.1 °F /  -16.6 °C 2.0 °F /  -16.7 °C 1013.1 in /  34303.6 hPa West 2.6 mph /  4.2 km/h 2.6 mph /  4.2 km/h 98 % 0.3 in /  7.62 mm
22:24 2.3 °F /  -16.5 °C 3.0 °F /  -16.1 °C 1013.1 in /  34303.6 hPa West 2.6 mph /  4.2 km/h 2.6 mph /  4.2 km/h 98 % 0.3 in /  7.62 mm
22:29 2.3 °F /  -16.5 °C 3.0 °F /  -16.1 °C 1013.1 in /  34303.6 hPa West 2.6 mph /  4.2 km/h 2.6 mph /  4.2 km/h 98 % 0.3 in /  7.62 mm
22:34 2.4 °F /  -16.4 °C 3.0 °F /  -16.1 °C 1013.1 in /  34303.6 hPa West 2.6 mph /  4.2 km/h 2.6 mph /  4.2 km/h 98 % 0.3 in /  7.62 mm
22:39 2.4 °F /  -16.4 °C 3.0 °F /  -16.1 °C 1013.1 in /  34303.6 hPa West 2.6 mph /  4.2 km/h 2.6 mph /  4.2 km/h 98 % 0.8 in /  20.32 mm
22:44 2.5 °F /  -16.4 °C 3.0 °F /  -16.1 °C 1013.1 in /  34303.6 hPa West 6.9 mph /  11.1 km/h 6.9 mph /  11.1 km/h 98 % 1.5 in /  38.1 mm
22:49 2.5 °F /  -16.4 °C 3.0 °F /  -16.1 °C 1013.1 in /  34303.6 hPa West 6.9 mph /  11.1 km/h 6.9 mph /  11.1 km/h 98 % 1.5 in /  38.1 mm
22:54 2.5 °F /  -16.4 °C 3.0 °F /  -16.1 °C 1013.1 in /  34303.6 hPa West 6.9 mph /  11.1 km/h 6.9 mph /  11.1 km/h 98 % 1.5 in /  38.1 mm
22:59 2.6 °F /  -16.3 °C 3.0 °F /  -16.1 °C 1012.1 in /  34269.7 hPa West 6.9 mph /  11.1 km/h 6.9 mph /  11.1 km/h 98 % 1.5 in /  38.1 mm
23:04 2.6 °F /  -16.3 °C 3.0 °F /  -16.1 °C 1012.1 in /  34269.7 hPa West 6.9 mph /  11.1 km/h 6.9 mph /  11.1 km/h 98 % 1.5 in /  38.1 mm
23:09 2.7 °F /  -16.3 °C 3.0 °F /  -16.1 °C 1012.1 in /  34269.7 hPa West 6.9 mph /  11.1 km/h 6.9 mph /  11.1 km/h 98 % 1.5 in /  38.1 mm
23:14 2.8 °F /  -16.2 °C 3.0 °F /  -16.1 °C 1013.1 in /  34303.6 hPa West 6.9 mph /  11.1 km/h 6.9 mph /  11.1 km/h 98 % 1.5 in /  38.1 mm
23:19 2.8 °F /  -16.2 °C 3.0 °F /  -16.1 °C 1013.1 in /  34303.6 hPa West 6.9 mph /  11.1 km/h 6.9 mph /  11.1 km/h 98 % 1.5 in /  38.1 mm
23:24 2.7 °F /  -16.3 °C 3.0 °F /  -16.1 °C 1013.1 in /  34303.6 hPa West 6.9 mph /  11.1 km/h 6.9 mph /  11.1 km/h 98 % 1.5 in /  38.1 mm
23:29 2.7 °F /  -16.3 °C 3.0 °F /  -16.1 °C 1013.1 in /  34303.6 hPa West 6.9 mph /  11.1 km/h 6.9 mph /  11.1 km/h 98 % 1.5 in /  38.1 mm
23:34 2.7 °F /  -16.3 °C 3.0 °F /  -16.1 °C 1013.1 in /  34303.6 hPa West 6.9 mph /  11.1 km/h 6.9 mph /  11.1 km/h 98 % 1.3 in /  33.02 mm
23:39 2.7 °F /  -16.3 °C 3.0 °F /  -16.1 °C 1013.1 in /  34303.6 hPa West 6.9 mph /  11.1 km/h 6.9 mph /  11.1 km/h 98 % 0.8 in /  20.32 mm
23:44 2.6 °F /  -16.3 °C 3.0 °F /  -16.1 °C 1013.1 in /  34303.6 hPa West 6.9 mph /  11.1 km/h 6.9 mph /  11.1 km/h 98 % 0.8 in /  20.32 mm
23:49 2.6 °F /  -16.3 °C 3.0 °F /  -16.1 °C 1013.1 in /  34303.6 hPa West 6.9 mph /  11.1 km/h 6.9 mph /  11.1 km/h 98 % 0.8 in /  20.32 mm
23:54 2.6 °F /  -16.3 °C 3.0 °F /  -16.1 °C 1013.1 in /  34303.6 hPa West 6.9 mph /  11.1 km/h 6.9 mph /  11.1 km/h 98 % 1.0 in /  25.4 mm
23:59 2.5 °F /  -16.4 °C 3.0 °F /  -16.1 °C 1014.1 in /  34337.4 hPa West 6.9 mph /  11.1 km/h 6.9 mph /  11.1 km/h 98 % 1.0 in /  25.4 mm
Le Gheer Warneton
Courtoisie de Weather Underground - 2.25 mb

Mise a jour : 21/02/2018 02:19:11
Généré par Cumulus 1.9.4 (1099)